Time;durP1;ratioP1;P1;durP2;ratioP2;P2;SDS_P1;SDS_P2;PMS_P1;PMS_P2;Temp;Humidity;BMP_temperature;BMP_pressure;BME280_temperature;BME280_humidity;BME280_pressure;Samples;Min_cycle;Max_cycle;Signal;HPM_P1;HPM_P2
2023/02/08 00:00:49;;;;;;;31.10;20.08;;;;;;;-3.27;100.00;102665.22;5123492;27;20676;-79
2023/02/08 00:03:15;;;;;;;32.17;20.45;;;;;;;-3.36;100.00;102664.31;5143978;27;20223;-78
2023/02/08 00:05:42;;;;;;;33.03;20.25;;;;;;;-3.36;100.00;102662.56;5144825;27;20228;-74
2023/02/08 00:08:09;;;;;;;36.63;20.20;;;;;;;-3.41;100.00;102662.53;5146259;27;20647;-76
2023/02/08 00:10:37;;;;;;;28.05;20.30;;;;;;;-3.38;100.00;102671.28;5125608;27;20259;-77
2023/02/08 00:13:03;;;;;;;34.60;21.80;;;;;;;-3.41;100.00;102664.28;5125379;27;20667;-77
2023/02/08 00:15:30;;;;;;;29.27;19.90;;;;;;;-3.42;100.00;102658.19;5124398;27;20606;-78
2023/02/08 00:17:57;;;;;;;33.45;19.52;;;;;;;-3.43;100.00;102656.41;5125845;27;20241;-75
2023/02/08 00:20:23;;;;;;;33.15;21.67;;;;;;;-3.43;100.00;102652.94;5124173;27;20212;-75
2023/02/08 00:22:50;;;;;;;29.80;20.98;;;;;;;-3.47;100.00;102648.53;5125104;28;20199;-77
2023/02/08 00:25:17;;;;;;;32.30;21.33;;;;;;;-3.52;100.00;102645.06;5124619;27;20201;-74
2023/02/08 00:27:45;;;;;;;29.63;21.13;;;;;;;-3.46;100.00;102651.16;5126113;27;20299;-74
2023/02/08 00:30:17;;;;;;;27.40;20.63;;;;;;;-3.45;100.00;102652.06;5123778;28;20228;-74
2023/02/08 00:32:43;;;;;;;30.25;21.00;;;;;;;-3.50;100.00;102640.72;5124784;28;20216;-73
2023/02/08 00:35:12;;;;;;;31.38;20.92;;;;;;;-3.59;100.00;102649.38;5123992;28;20224;-74
2023/02/08 00:37:39;;;;;;;33.55;20.35;;;;;;;-3.54;100.00;102647.66;5124661;28;20707;-74
2023/02/08 00:40:06;;;;;;;31.38;20.20;;;;;;;-3.52;100.00;102640.69;5124187;27;20234;-74
2023/02/08 00:42:32;;;;;;;38.38;21.63;;;;;;;-3.50;100.00;102638.09;5124537;27;20296;-74
2023/02/08 00:45:00;;;;;;;33.83;20.75;;;;;;;-3.47;100.00;102636.38;5124327;28;20232;-74
2023/02/08 00:47:27;;;;;;;30.00;20.05;;;;;;;-3.54;100.00;102634.59;5123913;28;20267;-74
2023/02/08 00:49:54;;;;;;;33.25;22.27;;;;;;;-3.51;100.00;102634.56;5128140;27;20268;-74
2023/02/08 00:52:21;;;;;;;35.75;22.30;;;;;;;-3.56;100.00;102635.44;5123784;28;20263;-72
2023/02/08 00:54:48;;;;;;;32.90;23.00;;;;;;;-3.51;100.00;102631.09;5127095;27;20232;-74
2023/02/08 00:57:14;;;;;;;31.85;19.20;;;;;;;-3.46;100.00;102635.47;5123495;28;20221;-75
2023/02/08 00:59:41;;;;;;;30.85;20.60;;;;;;;-3.56;100.00;102628.44;5123728;28;20290;-75
2023/02/08 01:02:09;;;;;;;32.50;21.00;;;;;;;-3.58;100.00;102627.56;5124712;27;20303;-74
2023/02/08 01:04:36;;;;;;;27.90;20.45;;;;;;;-3.61;100.00;102628.44;5124693;28;20224;-73
2023/02/08 01:07:03;;;;;;;35.25;22.13;;;;;;;-3.55;100.00;102624.97;5124010;27;20258;-75
2023/02/08 01:09:30;;;;;;;31.98;21.17;;;;;;;-3.50;100.00;102623.25;5124016;28;20272;-76
2023/02/08 01:11:56;;;;;;;31.00;21.60;;;;;;;-3.53;100.00;102625.00;5123740;27;20677;-76
2023/02/08 01:14:25;;;;;;;31.65;22.00;;;;;;;-3.62;100.00;102628.44;5124764;28;20253;-71
2023/02/08 01:16:52;;;;;;;35.10;21.15;;;;;;;-3.70;100.00;102612.69;5142495;27;20267;-76
2023/02/08 01:19:20;;;;;;;35.13;21.95;;;;;;;-3.55;100.00;102619.75;5137461;27;20220;-74
2023/02/08 01:21:47;;;;;;;27.63;21.10;;;;;;;-3.67;100.00;102615.31;5122895;27;20248;-73
2023/02/08 01:24:15;;;;;;;31.10;21.38;;;;;;;-3.68;100.00;102616.22;5123787;27;20222;-78
2023/02/08 01:26:41;;;;;;;29.15;20.20;;;;;;;-3.71;100.00;102613.56;5122996;28;20871;-79
2023/02/08 01:29:08;;;;;;;35.78;21.92;;;;;;;-3.82;100.00;102608.28;5126491;27;20231;-79
2023/02/08 01:31:37;;;;;;;29.10;20.42;;;;;;;-3.73;100.00;102603.94;5130143;27;20732;-76
2023/02/08 01:34:04;;;;;;;31.70;20.50;;;;;;;-3.64;100.00;102611.88;5137966;27;20201;-77
2023/02/08 01:36:33;;;;;;;30.80;20.98;;;;;;;-3.72;100.00;102610.94;5123424;28;20301;-78
2023/02/08 01:39:00;;;;;;;36.15;21.02;;;;;;;-3.65;100.00;102604.88;5123086;28;20279;-76
2023/02/08 01:41:28;;;;;;;33.75;21.98;;;;;;;-3.66;100.00;102609.25;5137243;27;20296;-76
2023/02/08 01:44:06;;;;;;;32.20;21.48;;;;;;;-3.60;100.00;102619.72;5123762;27;20211;-79
2023/02/08 01:46:34;;;;;;;26.45;20.35;;;;;;;-3.63;100.00;102610.97;5114904;28;20659;-79
2023/02/08 01:49:05;;;;;;;29.15;19.02;;;;;;;-3.73;100.00;102609.19;5123028;28;20228;-78
2023/02/08 01:51:36;;;;;;;36.47;21.52;;;;;;;-3.75;100.00;102609.16;5124195;27;20239;-76
2023/02/08 01:54:04;;;;;;;28.35;20.02;;;;;;;-3.78;100.00;102612.66;5124033;27;20701;-76
2023/02/08 01:56:33;;;;;;;36.30;21.00;;;;;;;-3.79;100.00;102615.25;5122969;27;20256;-77
2023/02/08 01:59:02;;;;;;;31.20;21.52;;;;;;;-3.74;100.00;102612.69;5127584;27;20204;-77
2023/02/08 02:01:30;;;;;;;28.25;19.00;;;;;;;-3.86;100.00;102606.50;5125142;27;20303;-78
2023/02/08 02:03:58;;;;;;;34.13;21.27;;;;;;;-3.95;100.00;102616.91;5123405;27;20258;-78
2023/02/08 02:06:28;;;;;;;29.73;20.70;;;;;;;-3.98;100.00;102604.66;5122201;28;20261;-75
2023/02/08 02:09:03;;;;;;;28.40;20.23;;;;;;;-3.96;100.00;102607.31;5135044;27;20231;-77
2023/02/08 02:11:30;;;;;;;31.05;21.42;;;;;;;-3.95;100.00;102606.44;5130970;27;20238;-80
2023/02/08 02:13:57;;;;;;;29.65;19.60;;;;;;;-4.00;100.00;102603.78;5127926;27;20246;-79
2023/02/08 02:16:24;;;;;;;33.42;20.52;;;;;;;-4.04;100.00;102609.00;5121890;27;20301;-77
2023/02/08 02:18:50;;;;;;;34.50;21.05;;;;;;;-4.00;100.00;102603.78;5129452;27;20242;-79
2023/02/08 02:21:31;;;;;;;41.55;25.80;;;;;;;-4.06;100.00;102605.47;5126499;27;20648;-79
2023/02/08 02:24:20;;;;;;;36.78;23.65;;;;;;;-4.22;100.00;102608.00;5123041;28;20201;-79
2023/02/08 02:27:08;;;;;;;36.33;23.17;;;;;;;-4.13;100.00;102606.31;5119383;27;20255;-75
2023/02/08 02:29:45;;;;;;;37.33;22.20;;;;;;;-4.09;100.00;102608.09;5125889;27;20225;-76
2023/02/08 02:32:25;;;;;;;33.92;22.52;;;;;;;-4.06;100.00;102603.78;5122584;27;20282;-77
2023/02/08 02:34:57;;;;;;;35.30;22.77;;;;;;;-4.10;100.00;102601.97;5126847;27;20196;-76
2023/02/08 02:37:33;;;;;;;33.95;20.88;;;;;;;-4.09;100.00;102595.03;5122652;27;20292;-76
2023/02/08 02:40:05;;;;;;;40.30;24.33;;;;;;;-4.17;100.00;102601.09;5128048;27;20201;-75
2023/02/08 02:45:35;;;;;;;27.90;20.10;;;;;;;-4.04;100.00;102601.16;5103384;28;20236;-76
2023/02/08 02:48:06;;;;;;;32.53;19.67;;;;;;;-3.90;100.00;102586.44;5137694;27;20200;-77
2023/02/08 02:50:36;;;;;;;30.27;19.35;;;;;;;-3.86;100.00;102592.56;5133549;27;20236;-75
2023/02/08 02:53:06;;;;;;;33.17;20.80;;;;;;;-3.93;100.00;102589.03;5122087;28;20213;-76
2023/02/08 02:55:35;;;;;;;38.10;22.35;;;;;;;-4.01;100.00;102585.50;5121503;27;20256;-76
2023/02/08 02:58:03;;;;;;;33.05;21.77;;;;;;;-4.09;100.00;102593.28;5127567;27;20357;-75
2023/02/08 03:00:31;;;;;;;32.90;22.30;;;;;;;-4.12;100.00;102595.00;5120900;28;20271;-74
2023/02/08 03:02:58;;;;;;;38.75;22.77;;;;;;;-4.19;100.00;102602.78;5122628;27;20228;-77
2023/02/08 03:05:27;;;;;;;30.42;21.40;;;;;;;-4.17;100.00;102598.47;5121077;27;20204;-73
2023/02/08 03:08:16;;;;;;;35.45;21.55;;;;;;;-4.15;100.00;102603.69;5121768;28;20236;-76
2023/02/08 03:10:53;;;;;;;32.60;20.48;;;;;;;-4.22;100.00;102596.66;5121108;28;20247;-75
2023/02/08 03:13:28;;;;;;;32.50;21.25;;;;;;;-4.22;100.00;102594.06;5122186;28;20196;-77
2023/02/08 03:16:02;;;;;;;30.27;20.23;;;;;;;-4.29;100.00;102590.50;5120798;27;20248;-77
2023/02/08 03:18:35;;;;;;;32.60;21.88;;;;;;;-4.18;100.00;102588.88;5119100;28;20228;-76
2023/02/08 03:21:08;;;;;;;28.52;18.95;;;;;;;-4.25;100.00;102594.91;5121454;27;20244;-73
2023/02/08 03:23:39;;;;;;;30.08;20.85;;;;;;;-4.21;100.00;102588.84;5131516;27;20254;-76
2023/02/08 03:26:08;;;;;;;31.40;19.08;;;;;;;-4.17;100.00;102587.13;5138668;27;20256;-77
2023/02/08 03:28:38;;;;;;;33.10;22.15;;;;;;;-4.12;100.00;102582.81;5121270;28;20312;-77
2023/02/08 03:31:09;;;;;;;33.97;20.75;;;;;;;-4.07;100.00;102585.47;5121155;27;20274;-77
2023/02/08 03:33:40;;;;;;;30.15;19.10;;;;;;;-4.04;100.00;102586.34;5130959;27;20185;-77
2023/02/08 03:36:16;;;;;;;32.17;20.63;;;;;;;-3.97;100.00;102589.88;5141353;27;20232;-78
2023/02/08 03:38:44;;;;;;;27.30;20.60;;;;;;;-4.00;100.00;102585.50;5121405;28;20260;-77
2023/02/08 03:41:14;;;;;;;31.67;19.25;;;;;;;-4.04;100.00;102575.91;5121406;27;20644;-77
2023/02/08 03:43:44;;;;;;;31.27;19.75;;;;;;;-4.13;100.00;102585.41;5125500;28;20228;-77
2023/02/08 03:46:13;;;;;;;32.72;21.60;;;;;;;-4.16;100.00;102583.66;5140736;27;20255;-74
2023/02/08 03:48:43;;;;;;;27.27;18.50;;;;;;;-4.23;100.00;102584.50;5122336;28;20240;-76
2023/02/08 03:51:11;;;;;;;30.08;20.38;;;;;;;-4.29;100.00;102585.28;5121272;27;20703;-79
2023/02/08 03:53:39;;;;;;;30.85;20.38;;;;;;;-4.38;100.00;102590.44;5131657;28;20227;-79
2023/02/08 03:56:08;;;;;;;31.27;19.95;;;;;;;-4.44;100.00;102583.44;5124610;28;20223;-76
2023/02/08 03:58:40;;;;;;;31.05;19.00;;;;;;;-4.25;100.00;102586.19;5120675;28;20709;-76
2023/02/08 04:01:11;;;;;;;31.60;19.58;;;;;;;-4.27;100.00;102585.31;5120098;28;20271;-77
2023/02/08 04:03:38;;;;;;;25.02;17.23;;;;;;;-4.33;100.00;102580.06;5122300;28;20217;-76
2023/02/08 04:06:05;;;;;;;29.00;19.42;;;;;;;-4.40;100.00;102580.00;5120496;27;20256;-76
2023/02/08 04:08:33;;;;;;;31.90;19.05;;;;;;;-4.43;100.00;102590.41;5135157;28;20239;-76
2023/02/08 04:11:00;;;;;;;28.27;18.50;;;;;;;-4.46;100.00;102586.91;5127112;28;20237;-78
2023/02/08 04:13:27;;;;;;;32.97;20.00;;;;;;;-4.49;100.00;102585.16;5121377;28;20277;-78
2023/02/08 04:15:53;;;;;;;26.98;17.70;;;;;;;-4.28;100.00;102588.81;5135494;27;20292;-76
2023/02/08 04:18:20;;;;;;;31.23;18.77;;;;;;;-4.13;100.00;102591.53;5133350;28;20248;-76
2023/02/08 04:20:47;;;;;;;28.65;17.73;;;;;;;-4.03;100.00;102582.00;5120441;28;20248;-78
2023/02/08 04:23:13;;;;;;;27.98;18.60;;;;;;;-4.23;100.00;102593.19;5120691;28;20229;-78
2023/02/08 04:25:41;;;;;;;31.80;20.30;;;;;;;-4.31;100.00;102583.53;5138100;27;20651;-78
2023/02/08 04:28:08;;;;;;;33.58;18.88;;;;;;;-4.40;100.00;102585.22;5140993;28;20239;-78
2023/02/08 04:30:34;;;;;;;27.40;17.70;;;;;;;-4.32;100.00;102590.50;5125046;28;20712;-75
2023/02/08 04:33:01;;;;;;;26.58;17.63;;;;;;;-4.36;100.00;102586.13;5121256;28;20279;-75
2023/02/08 04:35:28;;;;;;;28.55;17.15;;;;;;;-4.26;100.00;102590.53;5120176;28;20974;-77
2023/02/08 04:37:54;;;;;;;27.52;18.10;;;;;;;-4.29;100.00;102587.91;5124961;28;20235;-77
2023/02/08 04:40:21;;;;;;;26.20;17.42;;;;;;;-4.37;100.00;102593.06;5120503;28;20257;-77
2023/02/08 04:42:49;;;;;;;25.63;18.35;;;;;;;-4.41;100.00;102586.09;5121031;28;20737;-75
2023/02/08 04:45:16;;;;;;;29.60;19.17;;;;;;;-4.44;100.00;102580.84;5120694;28;20237;-76
2023/02/08 04:47:43;;;;;;;27.10;17.25;;;;;;;-4.30;100.00;102580.09;5124881;27;20248;-78
2023/02/08 04:50:09;;;;;;;35.28;19.15;;;;;;;-4.39;100.00;102584.38;5124742;27;20225;-77
2023/02/08 04:52:36;;;;;;;31.35;19.35;;;;;;;-4.43;100.00;102584.31;5125053;28;20231;-75
2023/02/08 04:55:03;;;;;;;29.80;18.38;;;;;;;-4.47;100.00;102593.88;5125162;27;20228;-76
2023/02/08 04:57:29;;;;;;;28.48;18.10;;;;;;;-4.49;100.00;102589.50;5123175;27;20241;-75
2023/02/08 04:59:57;;;;;;;24.02;17.00;;;;;;;-4.49;100.00;102592.13;5141003;27;20234;-75
2023/02/08 05:02:26;;;;;;;27.80;18.73;;;;;;;-4.47;100.00;102591.25;5124510;27;20267;-74
2023/02/08 05:04:52;;;;;;;28.52;18.83;;;;;;;-4.53;100.00;102604.28;5124167;28;20232;-74
2023/02/08 05:07:19;;;;;;;32.03;18.50;;;;;;;-4.45;100.00;102596.50;5123483;27;20815;-76
2023/02/08 05:09:45;;;;;;;28.00;16.65;;;;;;;-4.42;100.00;102589.56;5132228;27;20222;-77
2023/02/08 05:12:12;;;;;;;25.92;18.67;;;;;;;-4.42;100.00;102588.69;5125440;27;20252;-75
2023/02/08 05:14:39;;;;;;;28.55;17.00;;;;;;;-4.46;100.00;102592.13;5133896;27;20200;-76
2023/02/08 05:17:07;;;;;;;29.13;17.77;;;;;;;-4.52;100.00;102592.94;5134767;27;20259;-76
2023/02/08 05:19:34;;;;;;;27.30;18.48;;;;;;;-4.53;100.00;102583.38;5141050;27;20284;-76
2023/02/08 05:22:00;;;;;;;36.65;20.70;;;;;;;-4.62;100.00;102593.72;5123602;27;20304;-75
2023/02/08 05:24:27;;;;;;;29.80;18.73;;;;;;;-4.67;100.00;102585.88;5123487;28;20218;-76
2023/02/08 05:26:54;;;;;;;31.80;19.73;;;;;;;-4.46;100.00;102587.78;5127018;27;20273;-76
2023/02/08 05:29:21;;;;;;;30.63;18.67;;;;;;;-4.52;100.00;102586.88;5136043;27;20201;-76
2023/02/08 05:31:47;;;;;;;30.95;19.85;;;;;;;-4.58;100.00;102592.91;5128685;27;20225;-75
2023/02/08 05:34:15;;;;;;;28.27;19.00;;;;;;;-4.57;100.00;102603.34;5136426;27;20208;-67
2023/02/08 05:36:42;;;;;;;28.65;17.75;;;;;;;-4.36;100.00;102596.56;5130977;27;20231;-67
2023/02/08 05:39:08;;;;;;;32.25;21.40;;;;;;;-4.40;100.00;102603.50;5123233;27;20659;-70
2023/02/08 05:41:35;;;;;;;26.45;19.00;;;;;;;-4.57;100.00;102600.72;5122894;27;20777;-70
2023/02/08 05:44:02;;;;;;;26.42;17.52;;;;;;;-4.61;100.00;102591.13;5132633;27;20224;-70
2023/02/08 05:46:28;;;;;;;27.50;17.88;;;;;;;-4.33;100.00;102595.72;5143053;27;20259;-70
2023/02/08 05:48:55;;;;;;;31.77;18.73;;;;;;;-4.24;100.00;102593.16;5143803;27;20240;-70
2023/02/08 05:51:23;;;;;;;30.10;18.33;;;;;;;-4.38;100.00;102601.75;5125559;27;20224;-71
2023/02/08 05:53:50;;;;;;;29.83;18.92;;;;;;;-4.53;100.00;102606.88;5123864;28;20193;-70
2023/02/08 05:56:16;;;;;;;30.23;18.80;;;;;;;-4.54;100.00;102603.38;5122294;28;20271;-70
2023/02/08 05:58:43;;;;;;;31.90;18.10;;;;;;;-4.57;100.00;102611.16;5126697;27;20269;-69
2023/02/08 06:01:10;;;;;;;33.33;20.15;;;;;;;-4.43;100.00;102607.81;5124014;27;20232;-69
2023/02/08 06:03:37;;;;;;;32.75;20.15;;;;;;;-4.47;100.00;102613.88;5122407;28;20223;-68
2023/02/08 06:06:04;;;;;;;29.65;19.30;;;;;;;-4.36;100.00;102609.63;5122614;28;20240;-68
2023/02/08 06:08:32;;;;;;;33.72;21.00;;;;;;;-4.46;100.00;102613.00;5138496;27;20782;-69
2023/02/08 06:10:59;;;;;;;30.08;19.35;;;;;;;-4.53;100.00;102612.09;5125923;27;20303;-69
2023/02/08 06:13:28;;;;;;;28.23;19.98;;;;;;;-4.54;100.00;102610.34;5124905;27;20229;-73
2023/02/08 06:15:54;;;;;;;27.42;17.80;;;;;;;-4.57;100.00;102615.53;5122068;27;20243;-73
2023/02/08 06:18:21;;;;;;;26.58;17.33;;;;;;;-4.63;100.00;102615.47;5132298;27;20307;-73
2023/02/08 06:20:47;;;;;;;27.70;18.23;;;;;;;-4.62;100.00;102605.03;5136305;27;20663;-73
2023/02/08 06:23:14;;;;;;;30.88;18.45;;;;;;;-4.63;100.00;102605.91;5134443;27;20227;-73
2023/02/08 06:25:42;;;;;;;30.73;19.27;;;;;;;-4.68;100.00;102602.38;5140326;27;20308;-71
2023/02/08 06:28:09;;;;;;;34.97;20.25;;;;;;;-4.67;100.00;102609.38;5143195;27;20204;-72
2023/02/08 06:30:36;;;;;;;31.02;19.63;;;;;;;-4.67;100.00;102614.59;5126947;27;20237;-73
2023/02/08 06:33:03;;;;;;;29.65;19.02;;;;;;;-4.70;100.00;102611.03;5129857;27;20188;-72
2023/02/08 06:35:29;;;;;;;27.33;17.70;;;;;;;-4.75;100.00;102609.28;5142868;27;20327;-72
2023/02/08 06:37:57;;;;;;;30.85;19.10;;;;;;;-4.76;100.00;102609.25;5127566;27;20255;-72
2023/02/08 06:40:24;;;;;;;31.88;19.10;;;;;;;-4.73;100.00;102604.06;5130536;27;20192;-72
2023/02/08 06:42:52;;;;;;;62.30;33.63;;;;;;;-4.69;100.00;102611.06;5139534;27;20229;-73
2023/02/08 06:45:18;;;;;;;42.08;23.55;;;;;;;-4.63;100.00;102605.91;5121610;27;20235;-72
2023/02/08 06:47:45;;;;;;;34.75;21.52;;;;;;;-4.64;100.00;102605.88;5131647;27;20243;-74
2023/02/08 06:50:17;;;;;;;38.60;24.60;;;;;;;-4.55;100.00;102614.69;5133605;27;20208;-74
2023/02/08 06:52:43;;;;;;;35.90;22.73;;;;;;;-4.54;100.00;102607.72;5135270;27;20246;-74
2023/02/08 06:55:10;;;;;;;36.42;22.27;;;;;;;-4.65;100.00;102602.41;5140287;27;20646;-74
2023/02/08 06:57:36;;;;;;;33.38;20.40;;;;;;;-4.65;100.00;102605.03;5123483;27;20205;-74
2023/02/08 07:00:11;;;;;;;40.28;23.35;;;;;;;-4.66;100.00;102610.22;5141993;27;20257;-74
2023/02/08 07:02:38;;;;;;;34.53;20.42;;;;;;;-4.73;100.00;102614.50;5130436;27;20251;-74
2023/02/08 07:05:05;;;;;;;36.58;21.50;;;;;;;-4.62;100.00;102607.63;5129073;27;20279;-74
2023/02/08 07:07:32;;;;;;;37.88;23.60;;;;;;;-4.55;100.00;102605.97;5139706;27;20296;-72
2023/02/08 07:10:00;;;;;;;26.58;21.13;;;;;;;-4.51;100.00;102599.03;5117173;27;20254;-72
2023/02/08 07:12:27;;;;;;;33.35;22.20;;;;;;;-4.43;100.00;102606.06;5108665;28;20221;-74
2023/02/08 07:14:53;;;;;;;30.98;20.27;;;;;;;-4.38;100.00;102616.56;5134641;27;20245;-74
2023/02/08 07:17:22;;;;;;;32.80;22.17;;;;;;;-4.37;100.00;102610.50;5105193;27;20296;-74
2023/02/08 07:19:49;;;;;;;33.72;21.85;;;;;;;-4.34;100.00;102610.50;5110421;27;20705;-74
2023/02/08 07:22:16;;;;;;;32.53;22.27;;;;;;;-4.26;100.00;102601.00;5125180;27;20224;-75
2023/02/08 07:24:42;;;;;;;40.10;22.00;;;;;;;-4.13;100.00;102608.91;5126656;27;20259;-75
2023/02/08 07:27:11;;;;;;;37.08;22.88;;;;;;;-4.14;100.00;102609.81;5120816;27;20336;-74
2023/02/08 07:29:37;;;;;;;33.05;21.10;;;;;;;-4.11;100.00;102608.09;5121918;27;20313;-74
2023/02/08 07:32:05;;;;;;;32.10;19.60;;;;;;;-4.08;100.00;102607.22;5130167;27;20255;-74
2023/02/08 07:34:36;;;;;;;34.67;20.33;;;;;;;-3.97;100.00;102602.97;5126860;27;20227;-73
2023/02/08 07:37:03;;;;;;;35.45;21.02;;;;;;;-3.88;100.00;102603.00;5118140;27;20256;-72
2023/02/08 07:39:30;;;;;;;37.72;22.40;;;;;;;-3.83;100.00;102603.03;5119142;28;20355;-74
2023/02/08 07:41:57;;;;;;;30.90;20.67;;;;;;;-3.78;100.00;102603.94;5130666;27;20242;-74
2023/02/08 07:44:24;;;;;;;35.35;21.77;;;;;;;-3.65;100.00;102602.25;5129419;28;20227;-74
2023/02/08 07:46:50;;;;;;;36.25;21.33;;;;;;;-3.58;100.00;102609.28;5138869;27;20253;-74
2023/02/08 07:49:17;;;;;;;30.77;20.38;;;;;;;-3.53;100.00;102599.72;5139686;28;20563;-72
2023/02/08 07:51:45;;;;;;;29.90;21.52;;;;;;;-3.44;100.00;102599.78;5131988;27;20231;-73
2023/02/08 07:54:12;;;;;;;33.88;21.95;;;;;;;-3.33;100.00;102601.53;5134582;28;20220;-73
2023/02/08 07:56:39;;;;;;;32.65;21.35;;;;;;;-3.16;100.00;102599.88;5130095;27;20734;-75
2023/02/08 07:59:08;;;;;;;34.88;21.92;;;;;;;-2.27;100.00;102602.63;5126916;28;20201;-74
2023/02/08 08:01:35;;;;;;;37.10;22.87;;;;;;;-0.58;100.00;102595.84;5124970;27;20242;-73
2023/02/08 08:04:01;;;;;;;37.20;23.47;;;;;;;1.06;100.00;102592.34;5128736;28;20425;-74
2023/02/08 08:06:28;;;;;;;32.37;21.47;;;;;;;1.39;100.00;102582.22;5125610;27;20478;-74
2023/02/08 08:08:56;;;;;;;39.80;24.10;;;;;;;3.20;100.00;102579.59;5120585;28;20447;-74
2023/02/08 08:11:23;;;;;;;30.53;22.97;;;;;;;4.36;95.53;102580.16;5119000;28;20991;-75
2023/02/08 08:13:50;;;;;;;24.17;19.37;;;;;;;4.47;82.50;102583.34;5121081;28;20834;-76
2023/02/08 08:16:18;;;;;;;22.10;17.30;;;;;;;4.79;73.64;102581.56;5138087;27;20472;-75
2023/02/08 08:18:46;;;;;;;18.13;14.97;;;;;;;3.65;68.37;102597.91;5140349;27;20445;-73
2023/02/08 08:21:15;;;;;;;17.90;14.97;;;;;;;3.13;74.79;102594.72;5141597;27;20476;-75
2023/02/08 08:23:42;;;;;;;14.93;12.90;;;;;;;3.41;70.52;102591.44;5125389;28;20965;-75
2023/02/08 08:26:12;;;;;;;19.77;14.60;;;;;;;3.21;73.79;102589.25;5123546;27;20464;-74
2023/02/08 08:28:39;;;;;;;16.30;13.53;;;;;;;3.70;69.86;102596.00;5124531;28;20479;-74
2023/02/08 08:31:10;;;;;;;19.30;15.30;;;;;;;4.08;62.85;102591.50;5143352;27;20480;-75
2023/02/08 08:33:36;;;;;;;17.90;13.80;;;;;;;3.38;65.68;102599.44;5142403;27;20447;-75
2023/02/08 08:36:03;;;;;;;16.50;12.70;;;;;;;2.66;69.90;102586.06;5138554;27;20502;-75
2023/02/08 08:38:30;;;;;;;20.20;13.67;;;;;;;4.38;70.17;102577.47;5143758;27;20488;-75
2023/02/08 08:40:56;;;;;;;18.43;14.17;;;;;;;5.20;63.25;102573.25;5131202;27;20481;-75
2023/02/08 08:43:24;;;;;;;18.97;12.93;;;;;;;4.44;62.86;102572.84;5129085;27;20521;-74
2023/02/08 08:45:51;;;;;;;16.43;12.70;;;;;;;3.70;65.45;102574.84;5144002;27;20478;-74
2023/02/08 08:48:18;;;;;;;22.27;14.80;;;;;;;3.99;68.03;102570.56;5124335;27;20459;-74
2023/02/08 08:50:44;;;;;;;17.33;13.10;;;;;;;3.24;66.35;102570.66;5123592;28;20493;-75
2023/02/08 08:53:11;;;;;;;16.23;12.47;;;;;;;3.96;62.76;102565.38;5125062;28;20914;-76
2023/02/08 08:55:37;;;;;;;17.80;14.37;;;;;;;4.08;62.19;102556.19;5123065;28;20484;-76
2023/02/08 08:58:07;;;;;;;18.33;13.10;;;;;;;4.33;60.79;102559.06;5123850;27;20464;-75
2023/02/08 09:00:35;;;;;;;18.80;13.00;;;;;;;5.33;60.08;102568.41;5123491;27;20471;-76
2023/02/08 09:03:02;;;;;;;14.50;12.10;;;;;;;4.64;60.15;102563.47;5123375;28;20506;-75
2023/02/08 09:05:29;;;;;;;17.60;13.47;;;;;;;3.25;62.44;102561.00;5132998;27;20468;-75
2023/02/08 09:07:55;;;;;;;20.73;14.90;;;;;;;2.76;67.21;102555.91;5144663;27;20487;-73
2023/02/08 09:10:22;;;;;;;18.40;13.20;;;;;;;4.70;60.83;102542.06;5126467;27;20446;-75
2023/02/08 09:12:49;;;;;;;15.57;12.67;;;;;;;4.09;61.58;102545.56;5135491;27;20469;-75
2023/02/08 09:15:15;;;;;;;17.90;13.67;;;;;;;4.49;62.19;102551.53;5144305;27;20472;-75
2023/02/08 09:17:43;;;;;;;19.00;13.33;;;;;;;4.75;59.88;102550.75;5125525;27;21030;-76
2023/02/08 09:20:11;;;;;;;16.60;12.70;;;;;;;6.40;54.54;102556.75;5123803;27;20442;-75
2023/02/08 09:22:37;;;;;;;17.57;13.30;;;;;;;6.67;50.54;102551.34;5124126;28;20475;-76
2023/02/08 09:25:06;;;;;;;16.67;13.10;;;;;;;6.16;49.87;102555.00;5123876;27;20439;-76
2023/02/08 09:27:32;;;;;;;17.37;12.83;;;;;;;4.98;57.76;102552.72;5121926;27;20480;-74
2023/02/08 09:29:59;;;;;;;17.20;13.30;;;;;;;5.13;60.25;102561.09;5125182;27;20429;-75
2023/02/08 09:32:26;;;;;;;18.17;13.73;;;;;;;5.33;58.29;102561.34;5121443;27;20988;-75
2023/02/08 09:34:56;;;;;;;17.20;13.47;;;;;;;5.88;56.79;102565.69;5120289;28;20889;-76
2023/02/08 09:37:23;;;;;;;20.80;13.37;;;;;;;8.56;50.10;102562.97;5126885;27;20491;-74
2023/02/08 09:39:49;;;;;;;18.77;14.43;;;;;;;5.98;53.64;102570.66;5132946;27;20472;-75
2023/02/08 09:42:27;;;;;;;19.43;14.27;;;;;;;4.72;60.45;102574.69;5135447;27;20479;-75
2023/02/08 09:45:06;;;;;;;17.90;13.80;;;;;;;6.53;54.32;102566.94;5143622;27;20447;-76
2023/02/08 09:47:34;;;;;;;17.50;14.60;;;;;;;7.44;53.84;102563.38;5125692;27;21041;-71
2023/02/08 09:50:06;;;;;;;17.53;14.10;;;;;;;6.76;56.03;102552.78;5129678;27;20456;-72
2023/02/08 09:52:37;;;;;;;18.83;13.83;;;;;;;6.85;51.98;102562.19;5125977;27;20546;-71
2023/02/08 09:55:15;;;;;;;17.07;13.20;;;;;;;6.19;56.70;102560.19;5122194;27;20454;-72
2023/02/08 09:57:42;;;;;;;19.03;13.80;;;;;;;5.95;53.43;102557.44;5132090;27;20521;-72
2023/02/08 10:00:14;;;;;;;19.60;15.57;;;;;;;4.95;60.71;102563.41;5139432;27;20518;-70
2023/02/08 10:02:41;;;;;;;19.40;13.83;;;;;;;5.87;59.15;102566.59;5126409;27;20474;-72
2023/02/08 10:05:12;;;;;;;16.20;12.87;;;;;;;8.28;48.96;102561.53;5121716;28;20445;-73
2023/02/08 10:07:40;;;;;;;16.90;13.10;;;;;;;7.30;47.69;102566.59;5122968;28;20457;-73
2023/02/08 10:10:12;;;;;;;17.53;12.97;;;;;;;7.65;46.99;102558.97;5138564;27;20913;-73
2023/02/08 10:12:43;;;;;;;18.47;13.30;;;;;;;7.97;45.05;102564.69;5138428;27;20472;-74
2023/02/08 10:15:19;;;;;;;17.90;13.37;;;;;;;7.43;46.97;102556.31;5122301;27;20465;-74
2023/02/08 10:18:05;;;;;;;17.50;14.20;;;;;;;6.64;47.46;102551.44;5122281;28;20856;-74
2023/02/08 10:20:41;;;;;;;18.83;13.87;;;;;;;7.16;48.30;102554.72;5135735;27;20490;-74
2023/02/08 10:23:20;;;;;;;16.67;12.90;;;;;;;8.04;46.82;102550.19;5143039;27;20483;-74
2023/02/08 10:26:00;;;;;;;17.23;13.73;;;;;;;6.75;48.58;102554.56;5142916;27;20507;-74
2023/02/08 10:28:48;;;;;;;20.30;13.90;;;;;;;6.55;47.45;102557.13;5141230;27;20470;-74
2023/02/08 10:31:22;;;;;;;16.90;13.10;;;;;;;6.27;49.74;102552.84;5128365;27;20478;-74
2023/02/08 10:33:55;;;;;;;18.30;13.70;;;;;;;6.03;51.97;102566.06;5122786;27;20487;-73
2023/02/08 10:36:27;;;;;;;16.60;12.73;;;;;;;6.33;50.35;102557.03;5121598;27;20501;-74
2023/02/08 10:38:56;;;;;;;16.83;13.50;;;;;;;5.25;53.64;102553.59;5136198;27;20539;-73
2023/02/08 10:41:26;;;;;;;19.03;13.30;;;;;;;4.74;58.21;102548.16;5138304;27;21045;-74
2023/02/08 10:43:56;;;;;;;19.73;14.83;;;;;;;4.55;58.98;102545.19;5122057;28;20466;-73
2023/02/08 10:46:25;;;;;;;21.87;14.30;;;;;;;4.44;62.01;102546.34;5138558;27;20534;-73
2023/02/08 10:49:04;;;;;;;17.93;12.90;;;;;;;5.91;54.92;102536.41;5130471;27;20494;-74
2023/02/08 10:51:32;;;;;;;17.27;13.27;;;;;;;4.50;57.64;102538.25;5120728;27;20546;-73
2023/02/08 10:53:58;;;;;;;20.73;13.90;;;;;;;4.61;57.48;102529.97;5121803;28;20441;-73
2023/02/08 10:56:37;;;;;;;18.90;11.40;;;;;;;6.36;53.30;102530.38;5123495;27;20496;-74
2023/02/08 10:59:14;;;;;;;22.00;13.37;;;;;;;6.33;53.15;102525.16;5119147;28;20480;-74
2023/02/08 11:01:41;;;;;;;17.10;13.00;;;;;;;5.42;54.41;102512.41;5114947;27;20917;-74
2023/02/08 11:04:10;;;;;;;19.00;13.90;;;;;;;6.45;52.22;102516.72;5113666;27;20501;-74
2023/02/08 11:06:38;;;;;;;17.03;13.13;;;;;;;5.69;54.03;102520.34;5111901;28;20492;-74
2023/02/08 11:09:05;;;;;;;15.23;12.40;;;;;;;6.57;51.96;102516.25;5128783;27;20445;-74
2023/02/08 11:11:34;;;;;;;18.20;12.87;;;;;;;6.03;53.03;102507.63;5120661;27;21034;-75
2023/02/08 11:14:09;;;;;;;18.97;13.03;;;;;;;5.63;54.67;102498.41;5118891;28;20437;-74
2023/02/08 11:16:37;;;;;;;17.07;12.20;;;;;;;6.31;52.58;102501.31;5117209;27;20481;-74